Time;durP1;ratioP1;P1;durP2;ratioP2;P2;SDS_P1;SDS_P2;PMS_P1;PMS_P2;Temp;Humidity;BMP_temperature;BMP_pressure;BME280_temperature;BME280_humidity;BME280_pressure;Samples;Min_cycle;Max_cycle;Signal;HPM_P1;HPM_P2
2021/12/24 00:01:14;;;;;;;17.10;14.70;;;7.20;99.90;;;;;;5080375;28;20523;-57
2021/12/24 00:03:41;;;;;;;19.13;14.63;;;7.20;99.90;;;;;;5078058;28;20193;-57
2021/12/24 00:06:09;;;;;;;20.53;15.10;;;7.20;99.90;;;;;;5079901;28;20214;-62
2021/12/24 00:08:37;;;;;;;17.87;15.77;;;7.20;99.90;;;;;;5083014;28;20202;-57
2021/12/24 00:11:08;;;;;;;19.23;16.33;;;7.20;99.90;;;;;;5080984;28;20197;-57
2021/12/24 00:13:40;;;;;;;18.83;16.67;;;7.30;99.90;;;;;;5080594;28;20744;-57
2021/12/24 00:16:19;;;;;;;23.23;16.83;;;7.30;99.90;;;;;;5079284;28;20549;-58
2021/12/24 00:19:12;;;;;;;22.67;16.93;;;7.40;99.90;;;;;;5097676;28;20190;-58
2021/12/24 00:35:29;;;;;;;18.93;15.57;;;7.30;99.90;;;;;;5081882;28;20642;-58
2021/12/24 00:38:01;;;;;;;20.07;15.53;;;7.40;99.90;;;;;;5081805;28;20514;-57
2021/12/24 00:40:29;;;;;;;20.20;16.07;;;7.40;99.90;;;;;;5078810;28;20190;-56
2021/12/24 00:42:57;;;;;;;21.63;17.93;;;7.40;99.90;;;;;;5078202;28;20241;-57
2021/12/24 00:45:33;;;;;;;24.07;20.33;;;7.40;99.90;;;;;;5078940;28;20276;-57
2021/12/24 00:48:02;;;;;;;18.90;15.97;;;7.40;99.90;;;;;;5080694;28;20202;-58
2021/12/24 00:50:44;;;;;;;19.90;16.53;;;7.40;99.90;;;;;;5078699;28;20840;-57
2021/12/24 00:56:05;;;;;;;22.27;18.17;;;7.50;99.90;;;;;;5097647;28;20221;-58
2021/12/24 00:58:32;;;;;;;25.07;18.80;;;7.50;99.90;;;;;;5080245;28;20530;-57
2021/12/24 01:00:59;;;;;;;26.80;19.80;;;7.50;99.90;;;;;;5079786;28;20283;-57
2021/12/24 01:03:27;;;;;;;29.23;21.27;;;7.50;99.90;;;;;;5080542;28;20222;-57
2021/12/24 01:05:55;;;;;;;31.47;22.37;;;7.50;99.90;;;;;;5080941;28;20218;-57
2021/12/24 01:08:23;;;;;;;29.40;21.17;;;7.60;99.90;;;;;;5062346;28;20201;-57
2021/12/24 01:10:56;;;;;;;32.33;22.17;;;7.60;99.90;;;;;;5080062;28;20248;-57
2021/12/24 01:13:25;;;;;;;33.23;22.97;;;7.60;99.90;;;;;;5079270;28;20191;-57
2021/12/24 01:16:03;;;;;;;36.33;24.40;;;7.60;99.90;;;;;;5094545;28;20244;-57
2021/12/24 01:23:57;;;;;;;37.47;25.00;;;7.70;99.90;;;;;;5077435;28;20206;-57
2021/12/24 01:26:54;;;;;;;40.13;24.83;;;7.70;99.90;;;;;;5080337;28;20243;-57
2021/12/24 01:29:42;;;;;;;36.03;24.90;;;7.70;99.90;;;;;;5077577;28;20265;-57
2021/12/24 01:42:40;;;;;;;36.87;25.57;;;7.70;99.90;;;;;;5055577;28;20194;-57
2021/12/24 01:43:29;;;;;;;34.57;23.73;;;7.70;99.90;;;;;;5077616;28;20205;-56
2021/12/24 01:45:59;;;;;;;30.67;22.27;;;7.80;99.90;;;;;;5078047;28;20226;-58
2021/12/24 01:48:26;;;;;;;33.53;25.37;;;7.80;99.90;;;;;;5096122;28;20225;-57
2021/12/24 01:50:54;;;;;;;49.00;34.80;;;7.80;99.90;;;;;;5071520;28;20190;-58
2021/12/24 01:53:26;;;;;;;31.57;24.53;;;7.80;99.90;;;;;;5072110;28;20202;-57
2021/12/24 01:55:55;;;;;;;35.13;24.60;;;7.80;99.90;;;;;;5061547;28;20211;-57
2021/12/24 01:58:26;;;;;;;33.80;24.70;;;7.80;99.90;;;;;;5096391;28;20198;-56
2021/12/24 02:00:56;;;;;;;36.83;25.90;;;7.80;99.90;;;;;;5087062;28;20213;-57
2021/12/24 02:03:23;;;;;;;33.33;25.30;;;7.90;99.90;;;;;;5069495;28;20253;-56
2021/12/24 02:05:51;;;;;;;34.10;24.80;;;7.80;99.90;;;;;;5063025;28;20228;-57
2021/12/24 02:08:21;;;;;;;31.83;25.77;;;7.90;99.90;;;;;;5065895;28;20226;-57
2021/12/24 02:10:49;;;;;;;38.90;26.63;;;7.90;99.90;;;;;;5079418;28;20190;-57
2021/12/24 02:13:17;;;;;;;36.67;25.63;;;7.90;99.90;;;;;;5080180;28;20228;-57
2021/12/24 02:29:36;;;;;;;33.07;25.23;;;8.00;99.90;;;;;;5081519;28;20215;-57
2021/12/24 02:32:03;;;;;;;42.23;29.23;;;8.00;99.90;;;;;;5058769;28;20202;-58
2021/12/24 02:34:30;;;;;;;39.37;29.00;;;8.00;99.90;;;;;;5075832;28;20685;-57
2021/12/24 02:36:57;;;;;;;37.87;28.77;;;8.00;99.90;;;;;;5079953;28;20202;-58
2021/12/24 02:39:24;;;;;;;44.57;29.97;;;8.00;99.90;;;;;;5078795;28;20204;-57
2021/12/24 02:41:54;;;;;;;37.27;28.17;;;8.00;99.90;;;;;;5081747;28;20303;-58
2021/12/24 02:44:21;;;;;;;36.10;27.00;;;8.00;99.90;;;;;;5081872;28;20218;-58
2021/12/24 02:53:56;;;;;;;36.10;26.67;;;8.00;99.90;;;;;;5080494;28;20241;-57
2021/12/24 02:54:53;;;;;;;39.50;28.17;;;8.10;99.90;;;;;;5080267;28;20198;-57
2021/12/24 02:57:26;;;;;;;39.00;28.17;;;8.10;99.90;;;;;;5080089;28;20202;-57
2021/12/24 02:59:59;;;;;;;37.90;27.37;;;8.10;99.90;;;;;;5094899;28;20214;-58
2021/12/24 03:02:28;;;;;;;41.30;29.50;;;8.10;99.90;;;;;;5066762;28;20685;-57
2021/12/24 03:04:55;;;;;;;40.57;29.63;;;8.20;99.90;;;;;;5083356;28;20186;-57
2021/12/24 03:07:23;;;;;;;40.30;29.07;;;8.10;99.90;;;;;;5082090;28;20221;-57
2021/12/24 03:09:53;;;;;;;41.90;29.83;;;8.20;99.90;;;;;;5077706;28;20191;-57
2021/12/24 03:12:20;;;;;;;43.90;29.97;;;8.20;99.90;;;;;;5081205;28;20283;-58
2021/12/24 03:14:47;;;;;;;43.27;30.30;;;8.20;99.90;;;;;;5077854;28;20677;-58
2021/12/24 03:17:18;;;;;;;46.47;32.10;;;8.20;99.90;;;;;;5076682;28;20233;-57
2021/12/24 03:19:45;;;;;;;45.53;32.30;;;8.20;99.90;;;;;;5081614;28;20203;-57
2021/12/24 03:24:42;;;;;;;53.83;34.40;;;8.20;99.90;;;;;;5078913;28;20624;-57
2021/12/24 03:27:09;;;;;;;52.30;33.13;;;8.20;99.90;;;;;;5078741;28;20214;-57
2021/12/24 03:29:37;;;;;;;53.67;34.33;;;8.20;99.90;;;;;;5077500;28;20311;-57
2021/12/24 03:32:04;;;;;;;52.67;32.90;;;8.20;99.90;;;;;;5075495;28;20245;-57
2021/12/24 03:34:32;;;;;;;50.43;33.87;;;8.30;99.90;;;;;;5091223;28;20267;-57
2021/12/24 03:36:59;;;;;;;57.07;35.60;;;8.30;99.90;;;;;;5094126;28;20384;-58
2021/12/24 03:39:29;;;;;;;50.57;32.47;;;8.30;99.90;;;;;;5076112;28;20220;-57
2021/12/24 03:41:57;;;;;;;57.90;36.50;;;8.30;99.90;;;;;;5077531;28;20251;-57
2021/12/24 03:44:32;;;;;;;50.83;33.80;;;8.40;99.90;;;;;;5074886;28;20271;-58
2021/12/24 03:47:09;;;;;;;52.57;34.33;;;8.30;99.90;;;;;;5090641;28;20209;-57
2021/12/24 03:54:59;;;;;;;49.83;35.03;;;8.30;99.90;;;;;;5066519;28;20351;-56
2021/12/24 03:57:37;;;;;;;52.93;35.17;;;8.40;99.90;;;;;;5079673;28;20206;-57
2021/12/24 04:00:31;;;;;;;45.27;30.77;;;8.30;99.90;;;;;;5079540;28;20205;-57
2021/12/24 04:03:18;;;;;;;47.30;31.30;;;8.30;99.90;;;;;;5065347;28;20252;-57
2021/12/24 04:05:57;;;;;;;48.07;32.17;;;8.30;99.90;;;;;;5076954;28;20242;-57
2021/12/24 04:08:33;;;;;;;47.27;32.20;;;8.40;99.90;;;;;;5082650;28;20182;-57
2021/12/24 04:11:24;;;;;;;45.33;30.73;;;8.40;99.90;;;;;;5065346;28;20476;-57
2021/12/24 04:13:54;;;;;;;43.83;30.83;;;8.40;99.90;;;;;;5096251;28;20217;-57
2021/12/24 04:16:21;;;;;;;45.07;30.30;;;8.40;99.90;;;;;;5097094;28;20206;-57
2021/12/24 04:27:02;;;;;;;41.57;30.20;;;8.40;99.90;;;;;;5090871;28;20569;-57
2021/12/24 04:29:29;;;;;;;44.70;29.70;;;8.40;99.90;;;;;;5074781;28;20230;-57
2021/12/24 04:32:09;;;;;;;49.13;30.77;;;8.40;99.90;;;;;;5058506;28;20206;-57
2021/12/24 04:35:04;;;;;;;46.13;28.53;;;8.50;99.90;;;;;;5079459;28;20352;-57
2021/12/24 04:51:20;;;;;;;59.53;35.90;;;8.50;99.90;;;;;;5076885;28;20205;-56
2021/12/24 05:02:48;;;;;;;63.37;36.90;;;8.50;99.90;;;;;;5078839;28;20194;-57
2021/12/24 05:10:21;;;;;;;68.73;40.13;;;8.60;99.90;;;;;;5077560;28;20204;-57
2021/12/24 05:12:49;;;;;;;71.10;39.23;;;8.60;99.90;;;;;;5072447;28;20224;-58
2021/12/24 05:15:18;;;;;;;59.43;34.20;;;8.50;99.90;;;;;;5080931;28;20297;-57
2021/12/24 05:18:16;;;;;;;76.10;45.27;;;8.60;99.90;;;;;;5074205;28;20214;-57
2021/12/24 05:23:49;;;;;;;83.07;43.47;;;8.60;99.90;;;;;;5092530;28;20284;-57
2021/12/24 05:26:18;;;;;;;75.57;41.43;;;8.60;99.90;;;;;;5073689;28;20280;-58
2021/12/24 05:28:45;;;;;;;75.97;41.70;;;8.50;99.90;;;;;;5086979;28;20209;-57
2021/12/24 05:31:14;;;;;;;72.93;43.53;;;8.60;99.90;;;;;;5086854;28;20500;-58
2021/12/24 05:33:41;;;;;;;86.57;44.93;;;8.60;99.90;;;;;;5089368;28;20666;-58
2021/12/24 05:36:08;;;;;;;79.37;42.87;;;8.60;99.90;;;;;;5074220;28;20591;-58
2021/12/24 05:38:35;;;;;;;83.27;45.07;;;8.60;99.90;;;;;;5094925;28;20213;-57
2021/12/24 05:41:03;;;;;;;80.00;44.97;;;8.60;99.90;;;;;;5072008;28;20772;-58
2021/12/24 05:43:30;;;;;;;80.93;45.97;;;8.60;99.90;;;;;;5047188;28;20285;-57
2021/12/24 05:45:57;;;;;;;85.00;47.53;;;8.60;88.20;;;;;;5077639;28;20535;-57
2021/12/24 05:48:38;;;;;;;90.43;50.20;;;8.60;77.80;;;;;;5073474;28;20194;-58
2021/12/24 05:51:09;;;;;;;95.33;50.07;;;8.50;21.60;;;;;;5096813;28;20190;-56
2021/12/24 05:54:00;;;;;;;97.23;53.30;;;8.50;4.10;;;;;;5054617;28;20210;-57
2021/12/24 05:56:30;;;;;;;96.67;52.87;;;8.60;1.00;;;;;;5074773;28;20305;-57
2021/12/24 05:59:17;;;;;;;105.60;55.53;;;8.60;1.00;;;;;;5067089;28;20198;-57
2021/12/24 06:01:48;;;;;;;108.07;57.57;;;8.60;1.00;;;;;;5074004;28;20202;-57
2021/12/24 06:04:15;;;;;;;97.63;54.17;;;8.60;99.90;;;;;;5074253;28;20190;-57
2021/12/24 06:06:42;;;;;;;102.33;53.13;;;8.60;99.90;;;;;;5072279;28;20234;-56
2021/12/24 06:09:09;;;;;;;97.83;57.33;;;8.60;1.00;;;;;;5072894;28;21219;-57
2021/12/24 06:11:36;;;;;;;100.40;54.90;;;8.60;68.80;;;;;;5075858;28;20713;-59
2021/12/24 06:14:10;;;;;;;106.37;55.43;;;8.60;1.00;;;;;;5074219;28;20204;-57
2021/12/24 06:16:49;;;;;;;101.07;56.83;;;8.60;56.10;;;;;;5078316;28;20196;-58
2021/12/24 06:19:17;;;;;;;98.37;55.03;;;8.60;1.00;;;;;;5073084;28;20199;-58
2021/12/24 06:21:45;;;;;;;94.77;54.20;;;8.60;99.90;;;;;;5078195;28;20620;-57
2021/12/24 06:24:13;;;;;;;96.90;54.97;;;8.60;99.90;;;;;;5071811;28;20199;-57
2021/12/24 06:26:40;;;;;;;95.83;53.70;;;8.60;1.00;;;;;;5076340;28;20319;-58
2021/12/24 06:29:07;;;;;;;93.63;53.87;;;8.60;1.00;;;;;;5075753;28;20634;-56
2021/12/24 06:31:34;;;;;;;90.27;50.60;;;8.70;99.90;;;;;;5054627;28;20659;-57
2021/12/24 06:34:01;;;;;;;98.93;54.67;;;8.70;1.00;;;;;;5054036;28;20301;-57
2021/12/24 06:36:31;;;;;;;87.57;52.40;;;8.70;99.90;;;;;;5075294;28;20195;-58
2021/12/24 06:38:58;;;;;;;86.30;51.13;;;8.70;99.90;;;;;;5055359;28;20736;-57
2021/12/24 06:41:25;;;;;;;89.00;52.00;;;8.60;99.90;;;;;;5056821;28;20252;-58
2021/12/24 06:43:53;;;;;;;86.70;49.07;;;8.70;69.40;;;;;;5053189;28;20721;-56
2021/12/24 06:46:20;;;;;;;88.90;51.20;;;8.70;1.00;;;;;;5055065;28;20286;-57
2021/12/24 06:48:56;;;;;;;77.13;46.20;;;8.70;1.00;;;;;;5050430;28;20193;-57
2021/12/24 06:51:23;;;;;;;84.07;47.57;;;8.70;1.00;;;;;;5052815;28;20195;-57
2021/12/24 06:53:53;;;;;;;86.10;48.53;;;8.80;1.00;;;;;;5070279;28;20624;-58
2021/12/24 06:56:21;;;;;;;80.10;47.87;;;8.70;99.90;;;;;;5053073;28;20697;-57
2021/12/24 06:58:49;;;;;;;84.23;48.63;;;8.70;99.90;;;;;;5055167;28;20278;-57
2021/12/24 07:01:17;;;;;;;81.63;46.60;;;8.70;45.90;;;;;;5060162;28;20450;-57
2021/12/24 07:03:45;;;;;;;82.67;48.27;;;8.70;1.00;;;;;;5037665;28;20226;-57
2021/12/24 07:06:15;;;;;;;86.33;51.03;;;8.80;1.00;;;;;;5062336;28;20210;-56
2021/12/24 07:08:42;;;;;;;77.80;48.40;;;8.70;1.00;;;;;;5055733;28;20641;-57
2021/12/24 07:11:09;;;;;;;80.67;49.10;;;8.70;1.00;;;;;;5056939;28;20588;-56
2021/12/24 07:13:36;;;;;;;73.47;46.37;;;8.70;1.00;;;;;;5057367;28;20728;-57
2021/12/24 07:16:04;;;;;;;74.07;44.63;;;8.70;1.00;;;;;;5058640;28;20207;-57
2021/12/24 07:18:31;;;;;;;82.37;47.93;;;8.80;1.00;;;;;;5059034;28;20203;-56
2021/12/24 07:20:58;;;;;;;70.60;44.47;;;8.70;1.00;;;;;;5051285;28;20288;-57
2021/12/24 07:23:25;;;;;;;74.73;45.70;;;8.70;1.00;;;;;;5060176;28;20222;-57
2021/12/24 07:25:52;;;;;;;71.90;45.10;;;8.70;1.00;;;;;;5043611;28;20258;-57
2021/12/24 07:28:19;;;;;;;72.33;44.93;;;8.70;1.00;;;;;;5070198;28;20206;-57
2021/12/24 07:30:46;;;;;;;74.47;45.53;;;8.70;1.00;;;;;;5072923;28;20267;-56
2021/12/24 07:33:14;;;;;;;67.67;40.77;;;8.70;1.00;;;;;;5081037;28;20286;-57
2021/12/24 07:35:46;;;;;;;68.33;44.00;;;8.80;1.00;;;;;;5084362;28;20195;-56
2021/12/24 07:38:13;;;;;;;66.33;42.53;;;8.80;1.00;;;;;;5081932;28;20281;-57
2021/12/24 07:40:44;;;;;;;71.77;42.30;;;8.80;1.00;;;;;;5081919;28;20194;-57
2021/12/24 07:43:11;;;;;;;73.80;45.27;;;8.70;1.00;;;;;;5076483;28;20222;-58
2021/12/24 07:45:41;;;;;;;67.13;42.37;;;8.80;1.00;;;;;;5091989;28;20650;-56
2021/12/24 07:48:13;;;;;;;67.33;42.50;;;8.80;1.00;;;;;;5077445;28;20289;-57
2021/12/24 07:53:15;;;;;;;67.70;42.00;;;8.70;1.00;;;;;;5082387;28;20183;-57
2021/12/24 07:55:43;;;;;;;73.43;42.90;;;8.80;1.00;;;;;;5076597;28;20592;-57
2021/12/24 07:58:13;;;;;;;65.97;40.87;;;8.80;99.90;;;;;;5077649;28;20210;-58
2021/12/24 08:00:40;;;;;;;68.93;43.03;;;8.80;99.90;;;;;;5075707;28;20268;-57
2021/12/24 08:03:08;;;;;;;65.50;42.17;;;8.80;99.90;;;;;;5075325;28;20225;-57
2021/12/24 08:05:39;;;;;;;64.57;40.03;;;8.80;99.90;;;;;;5092073;28;20291;-57
2021/12/24 08:08:10;;;;;;;63.17;40.77;;;8.70;34.00;;;;;;5062406;28;20210;-57
2021/12/24 08:10:38;;;;;;;65.93;40.40;;;8.90;1.00;;;;;;5063211;28;20194;-57
2021/12/24 08:13:05;;;;;;;60.03;37.47;;;8.90;1.00;;;;;;5066104;28;20289;-57
2021/12/24 08:15:32;;;;;;;70.60;40.47;;;8.90;1.00;;;;;;5067943;28;20301;-57
2021/12/24 08:17:59;;;;;;;63.07;37.40;;;8.90;1.00;;;;;;5066813;28;20225;-57
2021/12/24 08:20:27;;;;;;;59.77;37.03;;;8.90;1.00;;;;;;5064970;28;20533;-57
2021/12/24 08:22:56;;;;;;;60.27;37.27;;;8.90;1.00;;;;;;5082420;28;20277;-57
2021/12/24 08:25:24;;;;;;;65.57;39.63;;;8.90;1.00;;;;;;5085421;28;20198;-57
2021/12/24 08:27:52;;;;;;;60.43;37.53;;;8.90;1.00;;;;;;5076851;28;20206;-57
2021/12/24 08:30:19;;;;;;;59.30;36.70;;;8.90;1.00;;;;;;5076908;28;21616;-57
2021/12/24 08:32:47;;;;;;;63.30;37.30;;;8.90;1.00;;;;;;5078773;28;20781;-57
2021/12/24 08:35:17;;;;;;;54.43;37.17;;;8.90;1.00;;;;;;5077793;28;20199;-57
2021/12/24 08:37:44;;;;;;;60.20;37.63;;;8.80;1.00;;;;;;5059214;28;20220;-57
2021/12/24 08:40:12;;;;;;;62.27;38.07;;;8.80;1.00;;;;;;5076097;28;20804;-57
2021/12/24 08:42:39;;;;;;;58.73;38.00;;;8.90;1.00;;;;;;5100676;28;20194;-57
2021/12/24 08:45:07;;;;;;;66.13;39.10;;;8.90;1.00;;;;;;5083604;28;20198;-58
2021/12/24 08:47:34;;;;;;;65.20;39.47;;;8.90;1.00;;;;;;5097923;28;20627;-58
2021/12/24 08:50:02;;;;;;;63.33;37.17;;;8.90;1.00;;;;;;5087231;28;20255;-57
2021/12/24 08:52:37;;;;;;;68.80;41.43;;;8.90;1.00;;;;;;5083192;28;20206;-57
2021/12/24 08:55:04;;;;;;;64.77;39.83;;;8.90;1.00;;;;;;5082342;28;20193;-57
2021/12/24 08:57:31;;;;;;;65.50;39.60;;;8.90;1.00;;;;;;5084423;28;20285;-57
2021/12/24 08:59:58;;;;;;;63.33;39.87;;;8.90;1.00;;;;;;5081705;28;20194;-57
2021/12/24 09:02:25;;;;;;;61.97;39.23;;;8.80;1.00;;;;;;5084290;28;20244;-57
2021/12/24 09:04:52;;;;;;;52.17;34.30;;;8.90;99.90;;;;;;5080603;28;20669;-57
2021/12/24 09:07:19;;;;;;;63.57;38.27;;;8.90;99.90;;;;;;5082539;28;20250;-57
2021/12/24 09:09:46;;;;;;;60.70;38.13;;;8.90;99.90;;;;;;5085417;28;20552;-56
2021/12/24 09:12:13;;;;;;;57.63;37.97;;;8.90;99.90;;;;;;5082884;28;20195;-57
2021/12/24 09:14:40;;;;;;;56.27;37.40;;;8.90;99.90;;;;;;5082951;28;20202;-57
2021/12/24 09:17:07;;;;;;;59.00;39.80;;;8.90;99.90;;;;;;5083656;28;20191;-56
2021/12/24 09:19:35;;;;;;;64.50;38.70;;;8.80;99.90;;;;;;5082849;28;20198;-57
2021/12/24 09:22:02;;;;;;;60.27;40.07;;;8.90;99.90;;;;;;5083068;28;20293;-57
2021/12/24 09:24:31;;;;;;;58.47;37.27;;;8.90;99.90;;;;;;5081580;28;20250;-58
2021/12/24 09:26:58;;;;;;;58.87;33.53;;;8.90;99.90;;;;;;5083777;28;20683;-57
2021/12/24 09:29:26;;;;;;;52.60;36.87;;;8.90;99.90;;;;;;5083121;28;20633;-57
2021/12/24 09:31:56;;;;;;;53.80;34.47;;;8.90;99.90;;;;;;5085652;28;20225;-58
2021/12/24 09:34:23;;;;;;;51.83;32.93;;;8.90;99.90;;;;;;5086784;28;20198;-58
2021/12/24 09:36:50;;;;;;;50.97;32.07;;;8.90;99.90;;;;;;5085211;28;20275;-58
2021/12/24 09:39:17;;;;;;;51.13;30.17;;;9.00;99.90;;;;;;5084301;28;20190;-57
2021/12/24 09:41:45;;;;;;;50.30;30.07;;;9.00;38.30;;;;;;5083554;28;20262;-57
2021/12/24 09:44:13;;;;;;;44.27;30.50;;;8.90;13.10;;;;;;5082849;28;20259;-57
2021/12/24 09:46:42;;;;;;;45.93;29.30;;;8.90;31.90;;;;;;5083656;28;20225;-57
2021/12/24 09:49:11;;;;;;;44.17;29.47;;;8.90;1.00;;;;;;5078696;28;20218;-58
2021/12/24 09:51:41;;;;;;;44.97;30.60;;;8.90;1.00;;;;;;5081328;28;20182;-58
2021/12/24 09:54:12;;;;;;;48.63;31.00;;;8.90;1.00;;;;;;5098097;28;20195;-57
2021/12/24 09:56:39;;;;;;;54.00;32.13;;;8.90;57.80;;;;;;5082324;28;20255;-58
2021/12/24 09:59:07;;;;;;;48.17;29.20;;;8.90;99.30;;;;;;5083831;28;20563;-57
2021/12/24 10:01:40;;;;;;;39.93;27.63;;;8.90;12.00;;;;;;5085366;28;20202;-57
2021/12/24 10:04:10;;;;;;;41.87;28.90;;;8.90;1.00;;;;;;5082303;28;20853;-57
2021/12/24 10:06:39;;;;;;;48.57;33.00;;;8.90;20.40;;;;;;5081243;28;20211;-59
2021/12/24 10:09:12;;;;;;;48.07;31.30;;;8.90;99.90;;;;;;5081445;28;20301;-57
2021/12/24 10:11:48;;;;;;;49.30;31.43;;;8.90;99.90;;;;;;5081136;28;20189;-57
2021/12/24 10:14:19;;;;;;;48.17;30.20;;;8.90;79.40;;;;;;5100921;28;20206;-57
2021/12/24 10:16:50;;;;;;;45.03;30.57;;;8.90;13.90;;;;;;5081919;28;20279;-57
2021/12/24 10:19:19;;;;;;;52.63;31.17;;;8.90;20.50;;;;;;5084979;28;20623;-57
2021/12/24 10:21:55;;;;;;;47.57;31.63;;;8.90;99.90;;;;;;5074272;28;20499;-57
2021/12/24 10:24:25;;;;;;;48.83;31.93;;;8.90;99.90;;;;;;5066493;28;20198;-57
2021/12/24 10:26:55;;;;;;;50.40;32.30;;;8.90;99.90;;;;;;5086240;28;20239;-58
2021/12/24 10:29:33;;;;;;;50.77;33.40;;;8.90;99.90;;;;;;5085217;28;20212;-57
2021/12/24 10:32:10;;;;;;;56.13;33.47;;;8.90;99.90;;;;;;5104636;28;20234;-57
2021/12/24 10:34:39;;;;;;;52.40;33.80;;;8.80;99.90;;;;;;5084514;28;20205;-58
2021/12/24 10:37:11;;;;;;;52.70;31.77;;;8.90;1.00;;;;;;5086589;28;20186;-58
2021/12/24 10:39:43;;;;;;;57.07;32.10;;;8.80;1.00;;;;;;5088496;28;20194;-59
2021/12/24 10:42:31;;;;;;;50.40;33.57;;;8.80;1.00;;;;;;5087408;28;20207;-57
2021/12/24 10:45:01;;;;;;;54.83;33.57;;;8.80;1.00;;;;;;5085776;28;20202;-58
2021/12/24 10:47:32;;;;;;;47.03;31.90;;;8.80;1.00;;;;;;5084695;28;20200;-59
2021/12/24 10:55:37;;;;;;;61.60;35.73;;;8.90;1.00;;;;;;5084992;28;20273;-58
2021/12/24 10:58:12;;;;;;;52.10;31.63;;;8.90;1.00;;;;;;5087175;28;20248;-58
2021/12/24 11:00:59;;;;;;;54.37;31.07;;;8.90;1.00;;;;;;5066659;28;20202;-59
2021/12/24 11:03:32;;;;;;;53.17;30.00;;;8.80;1.00;;;;;;5068826;28;20202;-58
2021/12/24 11:06:07;;;;;;;45.83;28.80;;;8.90;99.90;;;;;;5086713;28;20201;-58
2021/12/24 11:08:36;;;;;;;48.87;29.93;;;8.90;99.90;;;;;;5078234;28;20450;-58
2021/12/24 11:11:06;;;;;;;48.17;29.00;;;8.90;99.90;;;;;;5094509;28;20245;-58
2021/12/24 11:13:40;;;;;;;44.47;29.00;;;8.90;99.90;;;;;;5089535;28;20210;-59
2021/12/24 11:16:10;;;;;;;44.33;27.67;;;8.90;99.90;;;;;;5083373;28;20193;-59
2021/12/24 11:18:41;;;;;;;41.73;24.97;;;8.90;99.90;;;;;;5082467;28;20508;-58
2021/12/24 11:21:12;;;;;;;36.67;21.97;;;9.00;1.00;;;;;;5085140;28;20222;-57
2021/12/24 11:23:41;;;;;;;42.67;22.97;;;9.20;1.00;;;;;;5096109;28;20567;-59
2021/12/24 11:26:11;;;;;;;32.90;19.53;;;9.40;1.00;;;;;;5071211;28;20285;-57
2021/12/24 11:28:39;;;;;;;30.77;19.37;;;9.50;99.90;;;;;;5084644;28;20280;-57
2021/12/24 11:31:09;;;;;;;35.73;20.20;;;9.60;99.90;;;;;;5069378;28;21006;-58
2021/12/24 11:33:39;;;;;;;34.33;22.13;;;9.50;99.90;;;;;;5077872;28;20808;-58
2021/12/24 11:36:07;;;;;;;33.23;21.37;;;9.50;99.90;;;;;;5082224;28;20194;-58
2021/12/24 11:38:40;;;;;;;41.27;23.50;;;9.50;99.90;;;;;;5083240;28;20279;-58
2021/12/24 11:41:12;;;;;;;34.57;24.83;;;9.30;1.00;;;;;;5082311;28;20667;-58
2021/12/24 11:43:42;;;;;;;35.43;25.73;;;9.30;1.00;;;;;;5061096;28;20199;-58
2021/12/24 11:46:11;;;;;;;48.03;27.97;;;9.20;99.90;;;;;;5098109;28;20673;-58
2021/12/24 11:48:38;;;;;;;45.97;27.53;;;9.20;99.90;;;;;;5080410;28;20705;-58
2021/12/24 11:51:14;;;;;;;43.33;27.47;;;9.10;48.80;;;;;;5082404;28;20298;-59
2021/12/24 11:53:43;;;;;;;40.50;26.13;;;9.20;99.90;;;;;;5086346;28;20212;-58
2021/12/24 11:56:17;;;;;;;44.80;26.33;;;9.20;99.90;;;;;;5081219;28;20248;-57
2021/12/24 11:58:50;;;;;;;46.53;25.77;;;9.20;52.10;;;;;;5084526;28;20276;-58
2021/12/24 12:01:19;;;;;;;41.63;24.83;;;9.20;50.60;;;;;;5083185;28;20189;-57
2021/12/24 12:03:52;;;;;;;36.80;24.60;;;9.20;6.60;;;;;;5079794;28;20202;-58
2021/12/24 12:06:22;;;;;;;43.63;24.60;;;9.20;1.00;;;;;;5078811;28;20630;-58
2021/12/24 12:08:51;;;;;;;39.07;24.17;;;9.10;71.60;;;;;;5083534;28;20297;-57
2021/12/24 12:11:19;;;;;;;40.63;25.07;;;9.10;99.90;;;;;;5081717;28;20194;-59
2021/12/24 12:13:49;;;;;;;39.77;24.87;;;9.00;99.90;;;;;;5081674;28;20200;-57
2021/12/24 12:16:27;;;;;;;36.80;24.83;;;9.00;1.00;;;;;;5079383;28;20240;-58
2021/12/24 12:19:32;;;;;;;42.33;26.03;;;8.90;1.00;;;;;;5079317;28;20198;-58
2021/12/24 12:24:57;;;;;;;52.23;28.67;;;8.90;1.30;;;;;;5076927;28;20273;-58
2021/12/24 12:27:45;;;;;;;47.23;27.77;;;8.90;99.90;;;;;;5079207;28;20210;-58
2021/12/24 12:30:28;;;;;;;46.73;29.00;;;8.80;99.90;;;;;;5075836;28;20273;-57
2021/12/24 12:33:16;;;;;;;48.33;29.30;;;8.70;99.90;;;;;;5067355;28;20194;-57
2021/12/24 12:35:46;;;;;;;49.37;29.27;;;8.80;99.90;;;;;;5065038;28;20218;-59
2021/12/24 12:38:45;;;;;;;49.83;30.40;;;8.80;1.00;;;;;;5066752;28;20214;-58
2021/12/24 12:41:24;;;;;;;48.37;30.37;;;8.70;1.00;;;;;;5054279;28;20210;-57
2021/12/24 12:43:54;;;;;;;48.13;30.57;;;8.80;1.00;;;;;;5070032;28;20200;-57
2021/12/24 12:46:26;;;;;;;53.20;29.13;;;8.80;1.00;;;;;;5071481;28;20215;-57
2021/12/24 12:48:55;;;;;;;57.87;30.80;;;8.80;1.00;;;;;;5077460;28;20214;-57
2021/12/24 12:51:56;;;;;;;47.60;29.93;;;8.80;1.00;;;;;;5077998;28;20309;-58
2021/12/24 12:54:48;;;;;;;48.93;30.40;;;8.80;99.90;;;;;;5083089;28;20251;-58
2021/12/24 12:57:22;;;;;;;54.20;30.20;;;8.80;99.90;;;;;;5077609;28;20194;-57
2021/12/24 13:00:07;;;;;;;46.97;30.10;;;8.80;99.90;;;;;;5076666;28;20198;-58
2021/12/24 13:02:56;;;;;;;46.50;29.70;;;8.80;35.70;;;;;;5076654;28;20198;-57
2021/12/24 13:05:37;;;;;;;44.40;26.53;;;8.80;34.40;;;;;;5077836;28;20685;-57
2021/12/24 13:08:17;;;;;;;53.70;31.97;;;8.80;99.90;;;;;;5080852;28;20202;-57
2021/12/24 13:11:16;;;;;;;54.73;30.37;;;8.80;99.90;;;;;;5079999;28;20288;-58
2021/12/24 13:13:45;;;;;;;49.80;30.47;;;8.80;99.90;;;;;;5078592;28;20226;-57
2021/12/24 13:16:17;;;;;;;50.67;29.77;;;8.80;99.90;;;;;;5073994;28;20305;-57
2021/12/24 13:18:53;;;;;;;52.37;32.03;;;8.80;99.50;;;;;;5078199;28;20681;-58
2021/12/24 13:24:14;;;;;;;53.10;30.53;;;8.80;73.50;;;;;;5079933;28;21484;-57
2021/12/24 13:26:43;;;;;;;52.93;29.33;;;8.90;99.90;;;;;;5079214;28;21001;-57
2021/12/24 13:29:16;;;;;;;56.10;31.43;;;8.90;43.00;;;;;;5078620;28;20214;-57
2021/12/24 13:31:57;;;;;;;53.80;31.73;;;8.90;1.00;;;;;;5080807;28;20304;-57
2021/12/24 13:34:26;;;;;;;48.80;29.97;;;8.90;1.00;;;;;;5094929;28;20649;-57
2021/12/24 13:36:54;;;;;;;51.40;30.07;;;8.90;1.00;;;;;;5079819;28;20244;-57
2021/12/24 13:39:23;;;;;;;45.43;29.80;;;8.90;1.00;;;;;;5079586;28;20251;-57
2021/12/24 13:42:07;;;;;;;50.63;30.33;;;9.00;1.00;;;;;;5079095;28;20268;-57
2021/12/24 13:44:36;;;;;;;49.57;31.10;;;8.90;1.00;;;;;;5077721;28;20198;-57
2021/12/24 13:47:10;;;;;;;48.47;30.50;;;8.90;1.00;;;;;;5063491;28;20650;-57
2021/12/24 13:55:38;;;;;;;57.00;32.70;;;8.90;99.90;;;;;;5096920;28;20251;-58
2021/12/24 13:58:10;;;;;;;54.03;34.70;;;8.90;99.90;;;;;;5080290;28;20191;-59
2021/12/24 14:00:50;;;;;;;56.67;35.60;;;8.80;1.00;;;;;;5080982;28;20190;-58
2021/12/24 14:03:23;;;;;;;64.63;33.77;;;8.80;1.00;;;;;;5064501;28;20248;-59
2021/12/24 14:05:52;;;;;;;58.87;35.30;;;8.80;1.00;;;;;;5099784;28;20210;-58
2021/12/24 14:08:23;;;;;;;57.93;33.63;;;8.80;93.10;;;;;;5085120;28;20198;-57
2021/12/24 14:11:04;;;;;;;67.27;34.93;;;8.80;99.90;;;;;;5083878;28;20276;-57
2021/12/24 14:13:36;;;;;;;56.33;34.00;;;8.80;99.90;;;;;;5083487;28;20218;-58
2021/12/24 14:18:48;;;;;;;61.80;35.40;;;8.80;99.90;;;;;;5084996;28;20251;-59
2021/12/24 14:24:30;;;;;;;58.40;34.67;;;8.80;1.00;;;;;;5101319;28;20209;-57
2021/12/24 14:27:05;;;;;;;65.30;38.37;;;8.70;1.00;;;;;;5063141;28;20218;-57
2021/12/24 14:29:38;;;;;;;59.80;37.90;;;8.80;1.00;;;;;;5085440;28;20240;-58
2021/12/24 14:32:17;;;;;;;66.20;38.57;;;8.80;1.00;;;;;;5080776;28;20277;-58
2021/12/24 14:34:52;;;;;;;72.70;41.87;;;8.80;1.00;;;;;;5081589;28;20269;-57
2021/12/24 14:37:43;;;;;;;68.57;41.17;;;8.80;99.90;;;;;;5080603;28;20297;-57
2021/12/24 14:40:14;;;;;;;75.10;43.90;;;8.70;1.00;;;;;;5082303;28;20206;-58
2021/12/24 14:42:51;;;;;;;70.70;41.97;;;8.70;99.90;;;;;;5082447;28;20206;-58
2021/12/24 14:45:27;;;;;;;70.30;39.13;;;8.70;99.90;;;;;;5083657;28;20278;-58
2021/12/24 14:47:57;;;;;;;66.83;41.30;;;8.70;99.90;;;;;;5082806;28;20277;-57
2021/12/24 14:50:25;;;;;;;73.70;39.90;;;8.70;99.90;;;;;;5070906;28;20889;-57
2021/12/24 14:53:07;;;;;;;73.17;42.17;;;8.70;99.90;;;;;;5086205;28;20210;-58
2021/12/24 14:55:46;;;;;;;72.57;40.37;;;8.70;1.00;;;;;;5077812;28;20206;-59
2021/12/24 14:58:26;;;;;;;72.27;42.03;;;8.70;1.00;;;;;;5082539;28;20205;-57
2021/12/24 15:00:54;;;;;;;70.63;40.40;;;8.60;1.00;;;;;;5078167;28;20198;-58
2021/12/24 15:03:21;;;;;;;76.17;42.00;;;8.60;1.00;;;;;;5077174;28;20214;-57
2021/12/24 15:05:50;;;;;;;68.17;40.17;;;8.60;1.00;;;;;;5082805;28;20191;-58